createdAt,value
2022-10-05T00:01:01.608Z,100828.72
2022-10-05T00:04:15.298Z,100824.16
2022-10-05T00:07:19.588Z,100827.97
2022-10-05T00:10:22.741Z,100819.53
2022-10-05T00:13:27.465Z,100817.34
2022-10-05T00:16:35.118Z,100819.91
2022-10-05T00:19:39.466Z,100810.00
2022-10-05T00:22:41.936Z,100821.75
2022-10-05T00:25:44.413Z,100824.09
2022-10-05T00:28:47.042Z,100822.28
2022-10-05T00:31:51.525Z,100824.06
2022-10-05T00:34:54.021Z,100823.19
2022-10-05T00:37:57.045Z,100822.03
2022-10-05T00:41:09.275Z,100822.13
2022-10-05T00:44:25.776Z,100813.81
2022-10-05T00:47:37.525Z,100807.31
2022-10-05T00:50:51.998Z,100797.19
2022-10-05T00:54:02.717Z,100796.06
2022-10-05T00:57:26.454Z,100790.69
2022-10-05T01:00:29.474Z,100778.22
2022-10-05T01:03:47.528Z,100792.97
2022-10-05T01:07:03.006Z,100792.22
2022-10-05T01:10:15.847Z,100798.53
2022-10-05T01:13:29.570Z,100791.78
2022-10-05T01:16:38.735Z,100798.97
2022-10-05T01:19:56.093Z,100797.06
2022-10-05T01:23:30.158Z,100789.25
2022-10-05T01:26:48.793Z,100774.53
2022-10-05T01:29:59.373Z,100775.00
2022-10-05T01:33:13.101Z,100778.41
2022-10-05T01:36:22.353Z,100784.81
2022-10-05T01:39:28.592Z,100788.75
2022-10-05T01:42:45.461Z,100782.75
2022-10-05T01:45:59.410Z,100782.00
2022-10-05T01:49:15.396Z,100785.94
2022-10-05T01:52:28.658Z,100785.00
2022-10-05T01:55:37.950Z,100792.41
2022-10-05T01:58:50.225Z,100790.38
2022-10-05T02:01:59.699Z,100784.25
2022-10-05T02:05:09.264Z,100781.41
2022-10-05T02:08:16.671Z,100786.94
2022-10-05T02:11:19.686Z,100785.72
2022-10-05T02:14:25.866Z,100783.94
2022-10-05T02:17:37.517Z,100784.69
2022-10-05T02:20:43.323Z,100780.72
2022-10-05T02:23:48.102Z,100778.00
2022-10-05T02:26:53.134Z,100778.88
2022-10-05T02:30:00.579Z,100778.19
2022-10-05T02:33:09.618Z,100780.16
2022-10-05T02:36:15.907Z,100779.41
2022-10-05T02:39:24.858Z,100788.59
2022-10-05T02:42:34.166Z,100789.53
2022-10-05T02:45:48.012Z,100785.25
2022-10-05T02:49:03.700Z,100774.31
2022-10-05T02:52:13.235Z,100775.41
2022-10-05T02:55:20.523Z,100781.81
2022-10-05T02:58:26.838Z,100778.56
2022-10-05T03:01:35.229Z,100773.81
2022-10-05T03:04:45.433Z,100769.56
2022-10-05T03:07:54.339Z,100762.13
2022-10-05T03:11:05.724Z,100759.00
2022-10-05T03:14:14.416Z,100753.59
2022-10-05T03:17:20.798Z,100737.09
2022-10-05T03:20:37.576Z,100746.94
2022-10-05T03:23:52.487Z,100723.94
2022-10-05T03:27:03.337Z,100734.53
2022-10-05T03:30:09.581Z,100716.41
2022-10-05T03:33:21.504Z,100702.81
2022-10-05T03:36:28.261Z,100717.06
2022-10-05T03:39:37.367Z,100703.25
2022-10-05T03:42:51.765Z,100708.31
2022-10-05T03:46:02.107Z,100720.81
2022-10-05T03:49:15.027Z,100711.59
2022-10-05T03:52:24.421Z,100713.41
2022-10-05T03:55:35.109Z,100714.97
2022-10-05T03:58:44.662Z,100707.22
2022-10-05T04:01:52.839Z,100708.00
2022-10-05T04:05:01.288Z,100715.84
2022-10-05T04:08:11.254Z,100718.13
2022-10-05T04:11:17.920Z,100715.38
2022-10-05T04:14:25.055Z,100709.34
2022-10-05T04:17:35.715Z,100716.53
2022-10-05T04:20:44.249Z,100717.22
2022-10-05T04:23:54.526Z,100714.34
2022-10-05T04:27:01.436Z,100712.22
2022-10-05T04:30:08.118Z,100701.25
2022-10-05T04:33:12.670Z,100710.72
2022-10-05T04:36:25.212Z,100721.53
2022-10-05T04:39:42.158Z,100725.94
2022-10-05T04:42:52.462Z,100728.47
2022-10-05T04:46:15.138Z,100723.84
2022-10-05T04:49:40.807Z,100722.88
2022-10-05T04:52:50.948Z,100723.63
2022-10-05T04:56:02.173Z,100724.44
2022-10-05T04:59:30.071Z,100724.59
2022-10-05T05:02:52.712Z,100730.97
2022-10-05T05:06:16.754Z,100729.69
2022-10-05T05:09:54.069Z,100729.50
2022-10-05T05:13:10.711Z,100727.41
2022-10-05T05:16:21.869Z,100719.63
2022-10-05T05:19:40.911Z,100713.78
2022-10-05T05:22:51.806Z,100709.59
2022-10-05T05:26:04.502Z,100694.50
2022-10-05T05:29:19.729Z,100701.59
2022-10-05T05:32:36.607Z,100696.31
2022-10-05T05:36:08.603Z,100695.19
2022-10-05T05:39:24.799Z,100705.78
2022-10-05T05:42:40.805Z,100702.59
2022-10-05T05:45:55.089Z,100698.13
2022-10-05T05:48:59.071Z,100692.03
2022-10-05T05:52:05.377Z,100692.50
2022-10-05T05:55:14.230Z,100690.94
2022-10-05T05:58:23.324Z,100688.72
2022-10-05T06:01:33.850Z,100695.47
2022-10-05T06:04:43.695Z,100694.81
2022-10-05T06:07:46.426Z,100698.75
2022-10-05T06:10:53.249Z,100703.66
2022-10-05T06:13:59.107Z,100701.16
2022-10-05T06:17:06.124Z,100689.47
2022-10-05T06:20:28.749Z,100698.00
2022-10-05T06:23:39.988Z,100702.81
2022-10-05T06:27:08.059Z,100705.22
2022-10-05T06:30:14.180Z,100698.28
2022-10-05T06:33:29.513Z,100693.59
2022-10-05T06:36:41.521Z,100703.31
2022-10-05T06:40:00.900Z,100709.06
2022-10-05T06:43:17.571Z,100707.19
2022-10-05T06:46:24.706Z,100709.56
2022-10-05T06:49:32.167Z,100695.38
2022-10-05T06:52:43.567Z,100706.94
2022-10-05T06:55:54.888Z,100721.19
2022-10-05T06:59:05.231Z,100732.78
2022-10-05T07:02:18.392Z,100724.28
2022-10-05T07:05:53.846Z,100735.72
2022-10-05T07:09:12.062Z,100738.34
2022-10-05T07:12:45.519Z,100731.31
2022-10-05T07:15:59.852Z,100723.97
2022-10-05T07:19:17.541Z,100721.06
2022-10-05T07:22:37.034Z,100724.97
2022-10-05T07:25:47.253Z,100720.16
2022-10-05T07:28:57.090Z,100728.13
2022-10-05T07:32:12.256Z,100717.59
2022-10-05T07:35:39.142Z,100714.72
2022-10-05T07:38:49.968Z,100717.22
2022-10-05T07:42:00.331Z,100706.13
2022-10-05T07:45:14.383Z,100713.28
2022-10-05T07:48:21.999Z,100705.94
2022-10-05T07:51:32.429Z,100705.44
2022-10-05T07:54:45.820Z,100706.34
2022-10-05T07:57:57.216Z,100711.63
2022-10-05T08:01:06.658Z,100721.75
2022-10-05T08:04:16.373Z,100715.97
2022-10-05T08:07:19.844Z,100714.16
2022-10-05T08:10:32.652Z,100716.63
2022-10-05T08:13:43.352Z,100703.78
2022-10-05T08:16:48.474Z,100697.97
2022-10-05T08:20:02.194Z,100703.75
2022-10-05T08:23:13.201Z,100691.53
2022-10-05T08:26:25.249Z,100690.13
2022-10-05T08:29:33.482Z,100681.38
2022-10-05T08:32:41.216Z,100672.94
2022-10-05T08:35:46.118Z,100674.69
2022-10-05T08:38:50.741Z,100666.66
2022-10-05T08:42:30.566Z,100674.63
2022-10-05T08:45:51.854Z,100668.81
2022-10-05T08:49:20.814Z,100668.81
2022-10-05T08:52:28.908Z,100672.91
2022-10-05T08:55:40.099Z,100673.97
2022-10-05T08:59:02.546Z,100670.28
2022-10-05T09:02:21.773Z,100676.13
2022-10-05T09:05:56.726Z,100686.50
2022-10-05T09:09:32.087Z,100686.25
2022-10-05T09:12:52.892Z,100679.19
2022-10-05T09:16:28.078Z,100685.53
2022-10-05T09:20:07.722Z,100694.22
2022-10-05T09:23:14.087Z,100682.22
2022-10-05T09:26:43.723Z,100676.50
2022-10-05T09:30:11.407Z,100673.72
2022-10-05T09:33:56.715Z,100677.84
2022-10-05T09:37:34.167Z,100674.75
2022-10-05T09:41:10.173Z,100680.41
2022-10-05T09:44:41.229Z,100666.34
2022-10-05T09:48:01.922Z,100665.75
2022-10-05T09:51:37.076Z,100668.72
2022-10-05T09:55:20.338Z,100674.88
2022-10-05T09:59:14.348Z,100666.50
2022-10-05T10:02:34.984Z,100670.44
2022-10-05T10:06:11.172Z,100672.56
2022-10-05T10:09:29.245Z,100665.31
2022-10-05T10:12:46.732Z,100675.84
2022-10-05T10:16:09.673Z,100683.69
2022-10-05T10:19:29.073Z,100681.16
2022-10-05T10:22:50.137Z,100674.59
2022-10-05T10:26:11.305Z,100682.00
2022-10-05T10:29:43.247Z,100697.09
2022-10-05T10:33:02.678Z,100698.28
2022-10-05T10:36:14.196Z,100682.66
2022-10-05T10:39:25.398Z,100680.16
2022-10-05T10:42:38.647Z,100690.69
2022-10-05T10:45:53.777Z,100687.91
2022-10-05T10:49:02.256Z,100676.09
2022-10-05T10:52:33.595Z,100675.06
2022-10-05T10:55:44.551Z,100668.81
2022-10-05T10:59:11.558Z,100676.31
2022-10-05T11:02:37.214Z,100665.09
2022-10-05T11:05:58.025Z,100658.44
2022-10-05T11:09:21.178Z,100640.94
2022-10-05T11:13:11.659Z,100646.00
2022-10-05T11:16:40.930Z,100658.03
2022-10-05T11:20:03.509Z,100654.78
2022-10-05T11:23:34.135Z,100642.22
2022-10-05T11:27:03.229Z,100640.03
2022-10-05T11:30:48.843Z,100630.91
2022-10-05T11:34:26.534Z,100626.88
2022-10-05T11:37:56.509Z,100609.34
2022-10-05T11:41:18.741Z,100614.59
2022-10-05T11:44:45.961Z,100614.13
2022-10-05T11:48:23.759Z,100604.31
2022-10-05T11:51:35.383Z,100604.22
2022-10-05T11:55:11.653Z,100606.31
2022-10-05T11:58:20.916Z,100600.81
2022-10-05T12:01:34.585Z,100589.88
2022-10-05T12:04:49.024Z,100589.56
2022-10-05T12:08:04.321Z,100574.41
2022-10-05T12:11:26.655Z,100580.78
2022-10-05T12:14:41.463Z,100573.34
2022-10-05T12:17:53.415Z,100561.47
2022-10-05T12:21:00.365Z,100563.19
2022-10-05T12:24:10.441Z,100565.91
2022-10-05T12:27:19.650Z,100559.47
2022-10-05T12:30:30.635Z,100561.94
2022-10-05T12:33:38.914Z,100560.94
2022-10-05T12:37:03.617Z,100563.44
2022-10-05T12:40:21.550Z,100562.00
2022-10-05T12:43:34.385Z,100555.41
2022-10-05T12:46:43.946Z,100557.63
2022-10-05T12:49:59.639Z,100561.31
2022-10-05T12:53:22.426Z,100554.50
2022-10-05T12:56:37.946Z,100546.31
2022-10-05T12:59:45.856Z,100545.84
2022-10-05T13:02:50.952Z,100534.31
2022-10-05T13:06:02.791Z,100542.72
2022-10-05T13:09:11.448Z,100537.38
2022-10-05T13:12:20.686Z,100533.66
2022-10-05T13:15:29.659Z,100539.22
2022-10-05T13:18:44.262Z,100525.97
2022-10-05T13:22:10.457Z,100529.69
2022-10-05T13:25:26.647Z,100522.22
2022-10-05T13:28:39.200Z,100524.66
2022-10-05T13:31:47.828Z,100521.84
2022-10-05T13:34:57.849Z,100533.34
2022-10-05T13:38:09.134Z,100518.72
2022-10-05T13:41:24.302Z,100521.94
2022-10-05T13:44:34.934Z,100512.34
2022-10-05T13:47:47.507Z,100508.84
2022-10-05T13:51:00.891Z,100512.09
2022-10-05T13:54:13.967Z,100513.44
2022-10-05T13:57:26.656Z,100507.84
2022-10-05T14:00:29.577Z,100507.69
2022-10-05T14:03:35.945Z,100500.91
2022-10-05T14:06:39.903Z,100493.19
2022-10-05T14:09:49.308Z,100497.31
2022-10-05T14:12:55.033Z,100493.09
2022-10-05T14:16:22.679Z,100492.06
2022-10-05T14:19:31.839Z,100481.47
2022-10-05T14:22:42.592Z,100486.94
2022-10-05T14:25:50.254Z,100476.72
2022-10-05T14:28:59.673Z,100476.25
2022-10-05T14:32:04.129Z,100468.63
2022-10-05T14:35:16.593Z,100472.56
2022-10-05T14:38:22.483Z,100463.09
2022-10-05T14:41:27.287Z,100456.22
2022-10-05T14:47:48.895Z,100448.50
2022-10-05T14:50:55.669Z,100449.03
2022-10-05T14:54:00.609Z,100444.03
2022-10-05T14:57:23.280Z,100445.38
2022-10-05T15:00:26.075Z,100450.09
2022-10-05T15:03:43.799Z,100451.44
2022-10-05T15:06:57.618Z,100439.31
2022-10-05T15:10:15.114Z,100437.47
2022-10-05T15:13:21.261Z,100433.81
2022-10-05T15:16:28.853Z,100419.44
2022-10-05T15:19:44.731Z,100422.91
2022-10-05T15:22:53.416Z,100431.78
2022-10-05T15:26:08.306Z,100432.94
2022-10-05T15:29:21.741Z,100426.69
2022-10-05T15:32:41.637Z,100426.50
2022-10-05T15:35:55.463Z,100421.31
2022-10-05T15:39:06.499Z,100422.31
2022-10-05T15:42:14.587Z,100424.16
2022-10-05T15:45:23.341Z,100421.03
2022-10-05T15:48:36.807Z,100414.47
2022-10-05T15:51:50.791Z,100419.63
2022-10-05T15:55:18.136Z,100419.56
2022-10-05T15:58:40.679Z,100422.88
2022-10-05T16:01:51.302Z,100420.63
2022-10-05T16:05:04.926Z,100410.94
2022-10-05T16:08:36.651Z,100424.78
2022-10-05T16:12:00.022Z,100423.28
2022-10-05T16:15:16.495Z,100424.34
2022-10-05T16:18:43.319Z,100430.16
2022-10-05T16:21:54.044Z,100419.94
2022-10-05T16:25:07.964Z,100424.59
2022-10-05T16:28:24.773Z,100420.97
2022-10-05T16:31:34.515Z,100421.59
2022-10-05T16:34:54.205Z,100414.56
2022-10-05T16:38:06.662Z,100419.44
2022-10-05T16:41:14.209Z,100419.75
2022-10-05T16:44:30.222Z,100416.22
2022-10-05T16:47:45.015Z,100404.88
2022-10-05T16:50:59.429Z,100412.16
2022-10-05T16:54:13.965Z,100416.13
2022-10-05T16:57:20.945Z,100426.19
2022-10-05T17:00:25.665Z,100427.91
2022-10-05T17:03:43.045Z,100429.88
2022-10-05T17:07:09.899Z,100423.66
2022-10-05T17:10:41.053Z,100433.00
2022-10-05T17:14:15.063Z,100427.53
2022-10-05T17:17:55.577Z,100439.41
2022-10-05T17:21:12.298Z,100440.50
2022-10-05T17:24:32.221Z,100440.63
2022-10-05T17:27:51.006Z,100446.03
2022-10-05T17:31:09.345Z,100458.28
2022-10-05T17:34:27.271Z,100459.03
2022-10-05T17:37:36.127Z,100451.94
2022-10-05T17:40:40.826Z,100453.06
2022-10-05T17:44:20.078Z,100452.38
2022-10-05T17:47:55.712Z,100446.47
2022-10-05T17:51:17.251Z,100437.28
2022-10-05T17:54:39.596Z,100435.91
2022-10-05T17:57:42.087Z,100439.41
2022-10-05T18:01:16.990Z,100440.13
2022-10-05T18:04:34.445Z,100442.53
2022-10-05T18:07:39.293Z,100438.00
2022-10-05T18:11:07.241Z,100443.63
2022-10-05T18:14:20.289Z,100445.19
2022-10-05T18:17:39.881Z,100446.19
2022-10-05T18:20:44.750Z,100437.44
2022-10-05T18:24:02.569Z,100426.28
2022-10-05T18:27:16.786Z,100434.88
2022-10-05T18:30:22.581Z,100422.50
2022-10-05T18:33:42.355Z,100432.19
2022-10-05T18:37:07.379Z,100424.03
2022-10-05T18:40:25.514Z,100421.78
2022-10-05T18:43:34.810Z,100410.59
2022-10-05T18:46:47.736Z,100407.97
2022-10-05T18:50:03.618Z,100411.53
2022-10-05T18:53:18.990Z,100419.03
2022-10-05T18:56:31.187Z,100434.25
2022-10-05T18:59:46.878Z,100433.81
2022-10-05T19:02:52.835Z,100421.69
2022-10-05T19:06:03.390Z,100428.88
2022-10-05T19:09:19.159Z,100434.94
2022-10-05T19:12:38.117Z,100436.09
2022-10-05T19:15:50.990Z,100434.50
2022-10-05T19:19:10.071Z,100434.09
2022-10-05T19:22:22.531Z,100439.28
2022-10-05T19:25:37.290Z,100443.84
2022-10-05T19:28:53.304Z,100447.38
2022-10-05T19:32:03.540Z,100449.94
2022-10-05T19:35:19.557Z,100443.03
2022-10-05T19:38:30.558Z,100448.22
2022-10-05T19:41:45.633Z,100450.75
2022-10-05T19:45:01.582Z,100460.78
2022-10-05T19:48:21.029Z,100464.19
2022-10-05T19:51:30.342Z,100461.94
2022-10-05T19:54:33.417Z,100458.34
2022-10-05T19:57:37.673Z,100469.44
2022-10-05T20:00:42.354Z,100466.53
2022-10-05T20:03:48.677Z,100470.59
2022-10-05T20:06:51.146Z,100467.84
2022-10-05T20:09:57.989Z,100473.75
2022-10-05T20:13:01.765Z,100480.63
2022-10-05T20:16:37.570Z,100472.81
2022-10-05T20:19:57.759Z,100474.56
2022-10-05T20:23:19.634Z,100485.88
2022-10-05T20:26:58.093Z,100485.81
2022-10-05T20:30:02.218Z,100487.28
2022-10-05T20:33:10.394Z,100488.81
2022-10-05T20:36:12.948Z,100494.66
2022-10-05T20:39:16.666Z,100491.53
2022-10-05T20:42:20.534Z,100493.28
2022-10-05T20:45:23.157Z,100503.53
2022-10-05T20:48:27.489Z,100502.94
2022-10-05T20:51:30.470Z,100504.75
2022-10-05T20:54:33.161Z,100509.25
2022-10-05T20:57:38.517Z,100508.44
2022-10-05T21:00:59.085Z,100500.97
2022-10-05T21:04:07.944Z,100504.41
2022-10-05T21:07:10.618Z,100501.75
2022-10-05T21:10:14.221Z,100500.94
2022-10-05T21:13:17.560Z,100506.84
2022-10-05T21:16:20.483Z,100496.19
2022-10-05T21:19:24.299Z,100504.03
2022-10-05T21:22:26.751Z,100513.34
2022-10-05T21:25:29.253Z,100510.53
2022-10-05T21:28:33.827Z,100511.16
2022-10-05T21:31:36.801Z,100518.03
2022-10-05T21:34:41.130Z,100518.53
2022-10-05T21:37:43.563Z,100516.09
2022-10-05T21:40:46.057Z,100525.84
2022-10-05T21:43:49.243Z,100523.69
2022-10-05T21:46:52.217Z,100523.00
2022-10-05T21:49:56.140Z,100527.03
2022-10-05T21:53:00.708Z,100525.59
2022-10-05T21:56:06.177Z,100520.63
2022-10-05T21:59:11.696Z,100530.69
2022-10-05T22:02:14.149Z,100532.03
2022-10-05T22:05:18.374Z,100533.06
2022-10-05T22:08:23.550Z,100530.59
2022-10-05T22:11:26.858Z,100528.09
2022-10-05T22:14:29.291Z,100524.16
2022-10-05T22:17:32.242Z,100525.16
2022-10-05T22:20:36.411Z,100532.56
2022-10-05T22:23:39.447Z,100533.94
2022-10-05T22:26:44.502Z,100523.41
2022-10-05T22:29:47.195Z,100528.34
2022-10-05T22:32:49.643Z,100534.44
2022-10-05T22:35:54.038Z,100532.47
2022-10-05T22:38:56.499Z,100536.53
2022-10-05T22:41:59.418Z,100528.84
2022-10-05T22:45:01.862Z,100542.25
2022-10-05T22:48:04.777Z,100545.78
2022-10-05T22:51:09.149Z,100550.50
2022-10-05T22:54:11.583Z,100541.91
2022-10-05T22:57:14.035Z,100546.38
2022-10-05T23:00:17.017Z,100548.81
2022-10-05T23:03:19.462Z,100555.47
2022-10-05T23:06:24.042Z,100552.19
2022-10-05T23:09:26.483Z,100554.88
2022-10-05T23:12:28.957Z,100558.25
2022-10-05T23:15:31.401Z,100563.94
2022-10-05T23:18:34.358Z,100569.34
2022-10-05T23:21:38.254Z,100574.69
2022-10-05T23:24:40.704Z,100577.06
2022-10-05T23:27:44.117Z,100578.13
2022-10-05T23:30:46.609Z,100575.63
2022-10-05T23:33:49.083Z,100579.41
2022-10-05T23:36:52.886Z,100582.63
2022-10-05T23:39:55.362Z,100577.91
2022-10-05T23:42:58.244Z,100588.91
2022-10-05T23:46:01.908Z,100591.63
2022-10-05T23:49:04.436Z,100589.66
2022-10-05T23:52:08.216Z,100604.84
2022-10-05T23:55:11.225Z,100603.00
2022-10-05T23:58:13.712Z,100606.03
